Unicom:                    122.8

AWOS:                  118.275

Elevation           1458’ MSL

TPA:                   2500’ MSL

06/24:         5003’ L   75’ W

PAPI:       06/Left     24/Left

(Operate lights on unicom freq.)

Traffic Pattern: Left

Beacon: Sunset to Sunrise

Windsock: yes, lighted

Segmented Circle: No

 

Cleveland Center: 126.72/291.65

FSS: Altoona

[Source: ADDS]
METAR
KFKL 271756Z AUTO 25007KT 10SM OVC005 06/04 A3003 RMK AO2 CIG 004V008 SLP181 60009 T00560044 10056 20028 51011 =
KFKL 271720Z 2718/2818 25008KT P6SM BKN007 FM272200 28006KT P6SM BKN025 FM280500 10003KT P6SM BKN200 FM281200 13009KT 6SM RA OVC025 FM281600 15009KT 4SM RA OVC007
TAF
KFKL 271720Z 2718/2818 25008KT P6SM BKN007 FM272200 28006KT P6SM BKN025 FM280500 10003KT P6SM BKN200 FM281200 13009KT 6SM RA OVC025 FM281600 15009KT 4SM RA OVC007 =
[Source: ADDS]
METAR
KDUJ 271753Z AUTO 24008KT 10SM OVC004 04/03 A3001 RMK AO2 SLP174 60002 T00440028 10044 20022 51018 =
KDUJ 271720Z 2718/2818 24008G16KT P6SM VCSH BKN007 FM272000 27009KT P6SM BKN006 FM281000 11007KT P6SM VCSH OVC040 FM281200 12009KT 5SM RA OVC015 FM281700 15010KT 5SM RA OVC005
TAF
KDUJ 271720Z 2718/2818 24008G16KT P6SM VCSH BKN007 FM272000 27009KT P6SM BKN006 FM281000 11007KT P6SM VCSH OVC040 FM281200 12009KT 5SM RA OVC015 FM281700 15010KT 5SM RA OVC005 =

UAV Drone Information. 

Drone Information

 

https://faadronezone.faa.gov/

 

The FAA before you fly Smart Phone App.  https://www.faa.gov/uas/where_to_fly/b4ufly/

The FAA Drone/UAV page.   https://www.faa.gov/uas/

 

How do I get a Remote Pilot Operators Certificate?  https://www.faa.gov/uas/getting_started/fly_for_work_business/becoming_a_pilot/

 

Drone Law Enforcement Checklist.  https://www.faa.gov/uas/resources/law_enforcement/media/FAA-UAS-DRONE-LE-ReferenceCard.pdf

 

UAS Waiver for Flights neart Airports.  https://www.faa.gov/uas/request_waiver/

 

Sportys UAS Ground School Course.  http://www.sportys.com/pilotshop/uas-ground-school-course.html